Time;durP1;ratioP1;P1;durP2;ratioP2;P2;SDS_P1;SDS_P2;PMS_P1;PMS_P2;Temp;Humidity;BMP_temperature;BMP_pressure;BME280_temperature;BME280_humidity;BME280_pressure;Samples;Min_cycle;Max_cycle;Signal;HPM_P1;HPM_P2
2021/03/18 08:15:46;;;;;;;1.00;0.70;;;;;;;;;;5127994;27;20660;-82
2021/03/18 08:18:15;;;;;;;2.08;0.80;;;;;;;;;;5133116;28;20024;-83
2021/03/18 08:20:41;;;;;;;2.05;0.90;;;;;;;;;;5137842;27;20031;-83
2021/03/18 08:23:26;;;;;;;3.80;0.82;;;;;;;;;;5134371;27;20032;-83
2021/03/18 08:25:53;;;;;;;1.30;0.60;;;;;;;;;;5122319;27;20027;-83
2021/03/18 08:28:39;;;;;;;1.65;0.70;;;;;;;;;;5051511;28;20043;-83
2021/03/18 08:31:16;;;;;;;1.88;1.08;;;;;;;;;;5067973;28;20032;-82
2021/03/18 08:33:48;;;;;;;3.08;1.35;;;;;;;;;;5048849;28;20017;-82
2021/03/18 08:36:27;;;;;;;3.63;1.05;;;;;;;;;;5048652;28;20025;-82
2021/03/18 08:38:54;;;;;;;3.47;1.10;;;;;;;;;;5050291;28;20419;-82
2021/03/18 08:41:28;;;;;;;1.40;1.00;;;;;;;;;;5069034;28;20019;-82
2021/03/18 08:43:54;;;;;;;;;;;;;;;;;;5044594;28;20061;-84
2021/03/18 08:46:39;;;;;;;3.47;0.70;;;;;;;;;;5071379;28;19905;-84
2021/03/18 08:49:20;;;;;;;5.70;1.10;;;;;;;;;;5053266;28;20160;-84
2021/03/18 08:51:49;;;;;;;1.75;0.80;;;;;;;;;;5056110;28;20032;-83
2021/03/18 08:54:34;;;;;;;2.95;0.90;;;;;;;;;;5070716;28;20608;-84
2021/03/18 08:57:01;;;;;;;1.20;1.10;;;;;;;;;;5052282;28;20028;-84
2021/03/18 08:59:27;;;;;;;7.35;1.15;;;;;;;;;;5056673;28;20557;-84
2021/03/18 09:02:05;;;;;;;2.08;1.17;;;;;;;;;;5058866;28;20019;-83
2021/03/18 09:04:42;;;;;;;2.85;1.00;;;;;;;;;;5067383;28;20036;-84
2021/03/18 09:07:08;;;;;;;2.13;1.58;;;;;;;;;;5058843;28;20039;-85
2021/03/18 09:09:34;;;;;;;8.90;1.17;;;;;;;;;;5056469;28;20107;-83
2021/03/18 09:12:04;;;;;;;1.27;0.80;;;;;;;;;;5070296;28;20055;-83
2021/03/18 09:14:30;;;;;;;1.33;1.08;;;;;;;;;;5067037;28;20068;-83
2021/03/18 09:17:06;;;;;;;3.97;1.17;;;;;;;;;;5065135;28;20017;-83
2021/03/18 09:19:32;;;;;;;3.15;1.13;;;;;;;;;;5068890;28;20537;-85
2021/03/18 09:21:58;;;;;;;1.45;1.00;;;;;;;;;;5066421;28;20028;-85
2021/03/18 09:24:33;;;;;;;5.03;1.70;;;;;;;;;;5083492;28;20088;-86
2021/03/18 09:27:06;;;;;;;1.85;1.08;;;;;;;;;;5061765;28;20049;-84
2021/03/18 09:29:32;;;;;;;1.48;1.00;;;;;;;;;;5046953;28;20100;-84
2021/03/18 09:32:05;;;;;;;3.97;1.10;;;;;;;;;;5051836;28;20029;-84
2021/03/18 09:34:42;;;;;;;4.38;3.10;;;;;;;;;;5050813;28;20029;-83
2021/03/18 09:37:09;;;;;;;1.10;0.88;;;;;;;;;;5038600;28;20032;-84
2021/03/18 09:39:36;;;;;;;1.13;0.77;;;;;;;;;;5057177;28;20492;-83
2021/03/18 09:42:05;;;;;;;14.00;7.50;;;;;;;;;;5047969;28;20032;-83
2021/03/18 09:44:31;;;;;;;4.47;1.98;;;;;;;;;;5059040;28;20029;-84
2021/03/18 09:46:59;;;;;;;2.15;1.00;;;;;;;;;;5054109;28;20037;-85
2021/03/18 09:49:28;;;;;;;1.65;1.30;;;;;;;;;;5057653;28;20030;-85
2021/03/18 09:51:54;;;;;;;2.30;1.00;;;;;;;;;;5059128;28;20031;-82
2021/03/18 09:54:23;;;;;;;1.98;1.05;;;;;;;;;;5052609;28;20380;-83
2021/03/18 09:56:51;;;;;;;2.35;1.50;;;;;;;;;;5053003;28;20021;-85
2021/03/18 09:59:19;;;;;;;1.90;1.42;;;;;;;;;;5047974;28;20492;-84
2021/03/18 10:01:45;;;;;;;1.88;1.58;;;;;;;;;;5059773;28;20064;-85
2021/03/18 10:04:14;;;;;;;6.75;2.55;;;;;;;;;;5051361;28;20010;-85
2021/03/18 10:06:54;;;;;;;2.67;1.60;;;;;;;;;;5054335;28;20029;-84
2021/03/18 10:09:31;;;;;;;3.03;1.52;;;;;;;;;;5051069;28;20611;-84
2021/03/18 10:11:57;;;;;;;1.08;0.98;;;;;;;;;;5053857;28;20511;-85
2021/03/18 10:14:30;;;;;;;2.13;1.40;;;;;;;;;;5049883;28;20499;-86
2021/03/18 10:16:56;;;;;;;3.38;1.20;;;;;;;;;;5049785;28;20388;-86
2021/03/18 10:19:27;;;;;;;2.13;1.23;;;;;;;;;;5051647;28;20100;-86
2021/03/18 10:21:54;;;;;;;3.72;1.50;;;;;;;;;;5052871;28;20017;-85
2021/03/18 10:24:20;;;;;;;4.32;1.35;;;;;;;;;;5041264;28;20025;-87
2021/03/18 10:26:48;;;;;;;3.03;1.35;;;;;;;;;;5055074;28;20549;-84
2021/03/18 10:29:14;;;;;;;2.83;1.50;;;;;;;;;;5054020;28;20514;-84
2021/03/18 10:31:41;;;;;;;3.15;1.00;;;;;;;;;;5055788;28;20559;-85
2021/03/18 10:34:20;;;;;;;2.80;1.27;;;;;;;;;;5058151;28;20496;-88
2021/03/18 10:36:48;;;;;;;5.03;1.40;;;;;;;;;;5040108;28;20551;-86
2021/03/18 10:39:14;;;;;;;1.02;0.80;;;;;;;;;;5040895;28;20074;-88
2021/03/18 10:41:53;;;;;;;1.38;1.10;;;;;;;;;;5048361;28;20573;-85
2021/03/18 10:44:19;;;;;;;1.45;0.90;;;;;;;;;;5055510;28;20024;-86
2021/03/18 10:46:45;;;;;;;1.67;1.00;;;;;;;;;;5051810;28;20039;-86
2021/03/18 10:49:13;;;;;;;4.30;1.20;;;;;;;;;;5052891;28;20031;-85
2021/03/18 10:51:46;;;;;;;4.30;1.60;;;;;;;;;;5048565;28;20037;-86
2021/03/18 10:54:19;;;;;;;1.98;1.45;;;;;;;;;;5053044;28;20033;-86
2021/03/18 10:56:45;;;;;;;4.03;2.20;;;;;;;;;;5042982;28;20052;-83
2021/03/18 10:59:18;;;;;;;2.63;2.15;;;;;;;;;;5047621;28;20587;-83
2021/03/18 11:01:45;;;;;;;3.05;1.50;;;;;;;;;;5049078;28;20026;-82
2021/03/18 11:04:12;;;;;;;5.18;1.63;;;;;;;;;;5040708;28;20501;-83
2021/03/18 11:06:48;;;;;;;3.00;1.25;;;;;;;;;;5050171;28;20029;-84
2021/03/18 11:09:15;;;;;;;1.40;1.30;;;;;;;;;;5047207;28;20056;-85
2021/03/18 11:11:41;;;;;;;1.25;0.95;;;;;;;;;;5032568;28;20031;-85
2021/03/18 11:14:11;;;;;;;1.52;1.17;;;;;;;;;;5048119;28;20049;-86
2021/03/18 11:16:38;;;;;;;1.85;1.10;;;;;;;;;;5051671;28;20028;-85
2021/03/18 11:19:05;;;;;;;4.03;1.40;;;;;;;;;;5038799;28;20040;-84
2021/03/18 11:21:34;;;;;;;2.90;1.60;;;;;;;;;;5051519;28;20396;-85
2021/03/18 11:24:19;;;;;;;1.92;1.42;;;;;;;;;;5051870;28;20542;-85
2021/03/18 11:26:51;;;;;;;6.25;4.53;;;;;;;;;;5046435;28;20038;-86
2021/03/18 11:29:18;;;;;;;4.70;1.77;;;;;;;;;;5050526;28;20017;-83
2021/03/18 11:31:47;;;;;;;4.22;2.10;;;;;;;;;;5058809;28;20029;-84
2021/03/18 11:34:17;;;;;;;2.58;1.42;;;;;;;;;;5058372;28;20032;-85
2021/03/18 11:36:44;;;;;;;1.98;1.48;;;;;;;;;;5043066;28;20021;-83
2021/03/18 11:39:11;;;;;;;4.25;1.20;;;;;;;;;;5046572;28;20019;-83
2021/03/18 11:41:37;;;;;;;1.98;1.13;;;;;;;;;;5036857;28;20095;-83
2021/03/18 11:44:03;;;;;;;2.65;1.30;;;;;;;;;;5046045;28;20126;-83
2021/03/18 11:46:29;;;;;;;2.90;1.50;;;;;;;;;;5050555;28;20484;-84
2021/03/18 11:48:55;;;;;;;2.80;1.27;;;;;;;;;;5067172;28;20051;-83
2021/03/18 11:51:22;;;;;;;1.30;1.17;;;;;;;;;;5052656;28;20021;-85
2021/03/18 11:53:50;;;;;;;2.63;1.15;;;;;;;;;;5067295;28;20028;-85
2021/03/18 11:56:16;;;;;;;2.17;1.40;;;;;;;;;;5058311;28;20017;-84
2021/03/18 11:58:43;;;;;;;2.75;1.30;;;;;;;;;;5049700;28;20033;-83
2021/03/18 12:01:09;;;;;;;2.55;1.00;;;;;;;;;;5051130;28;20039;-83
2021/03/18 12:03:35;;;;;;;8.98;1.33;;;;;;;;;;5050001;28;20037;-83
2021/03/18 12:06:01;;;;;;;1.88;1.20;;;;;;;;;;5048701;28;20014;-83
2021/03/18 12:08:27;;;;;;;3.15;1.58;;;;;;;;;;5036804;28;20030;-83
2021/03/18 12:10:56;;;;;;;4.70;1.52;;;;;;;;;;5045645;28;20045;-84
2021/03/18 12:13:22;;;;;;;2.08;1.10;;;;;;;;;;5043297;28;20028;-86
2021/03/18 12:15:48;;;;;;;2.08;1.50;;;;;;;;;;5055000;28;20032;-86
2021/03/18 12:18:14;;;;;;;2.55;1.33;;;;;;;;;;5049492;28;20557;-85
2021/03/18 12:20:40;;;;;;;2.10;1.10;;;;;;;;;;5066107;28;20035;-86
2021/03/18 12:23:06;;;;;;;1.70;1.27;;;;;;;;;;5071209;28;20684;-88
2021/03/18 12:25:33;;;;;;;1.23;1.00;;;;;;;;;;5076688;28;20050;-87
2021/03/18 12:27:59;;;;;;;1.75;1.08;;;;;;;;;;5073205;28;20040;-84
2021/03/18 12:30:25;;;;;;;2.88;1.70;;;;;;;;;;5092333;28;20035;-83
2021/03/18 12:32:52;;;;;;;1.35;1.10;;;;;;;;;;5062889;28;20029;-84
2021/03/18 12:35:19;;;;;;;2.05;1.33;;;;;;;;;;5070296;28;20092;-81
2021/03/18 12:37:46;;;;;;;1.98;1.23;;;;;;;;;;5071238;28;20021;-81
2021/03/18 12:40:12;;;;;;;5.28;4.00;;;;;;;;;;5053764;28;20551;-82
2021/03/18 12:42:38;;;;;;;4.32;3.22;;;;;;;;;;5038569;28;20025;-82
2021/03/18 12:45:06;;;;;;;1.35;1.00;;;;;;;;;;5062984;28;20028;-83
2021/03/18 12:47:32;;;;;;;1.70;1.00;;;;;;;;;;5070863;28;20032;-84
2021/03/18 12:49:58;;;;;;;3.70;1.45;;;;;;;;;;5053045;28;20025;-86
2021/03/18 12:52:25;;;;;;;1.60;1.00;;;;;;;;;;5052881;28;20041;-84
2021/03/18 12:54:51;;;;;;;4.60;1.27;;;;;;;;;;5071277;28;20028;-83
2021/03/18 12:57:17;;;;;;;1.90;1.33;;;;;;;;;;5070095;28;20020;-84
2021/03/18 12:59:43;;;;;;;3.17;1.83;;;;;;;;;;5046120;28;20067;-86
2021/03/18 13:02:09;;;;;;;3.47;3.03;;;;;;;;;;5073557;28;20023;-85
2021/03/18 13:04:35;;;;;;;1.67;1.40;;;;;;;;;;5056455;28;20150;-85
2021/03/18 13:07:02;;;;;;;3.83;1.88;;;;;;;;;;5074145;28;20101;-83
2021/03/18 13:09:28;;;;;;;5.05;3.45;;;;;;;;;;5075246;28;20021;-82
2021/03/18 13:11:54;;;;;;;4.80;1.90;;;;;;;;;;5075160;28;20024;-84
2021/03/18 13:14:21;;;;;;;3.33;1.58;;;;;;;;;;5075993;28;20072;-87
2021/03/18 13:16:47;;;;;;;2.50;1.42;;;;;;;;;;5064863;28;20069;-86
2021/03/18 13:19:14;;;;;;;4.30;1.60;;;;;;;;;;5056450;28;20031;-85
2021/03/18 13:21:41;;;;;;;15.05;8.52;;;;;;;;;;5075037;28;20036;-84
2021/03/18 13:24:07;;;;;;;5.30;1.40;;;;;;;;;;5064010;28;20036;-82
2021/03/18 13:26:33;;;;;;;3.00;2.33;;;;;;;;;;5069646;28;20024;-84
2021/03/18 13:29:00;;;;;;;2.63;1.45;;;;;;;;;;5059847;28;20028;-86
2021/03/18 13:31:26;;;;;;;1.73;1.30;;;;;;;;;;5074496;28;20522;-84
2021/03/18 13:33:53;;;;;;;2.28;1.30;;;;;;;;;;5054003;28;20422;-85
2021/03/18 13:36:19;;;;;;;4.95;1.42;;;;;;;;;;5074241;28;20021;-85
2021/03/18 13:38:45;;;;;;;3.25;1.50;;;;;;;;;;5073454;28;20480;-85
2021/03/18 13:41:12;;;;;;;2.40;1.60;;;;;;;;;;5055717;28;20046;-86
2021/03/18 13:43:38;;;;;;;2.70;1.40;;;;;;;;;;5052548;28;20104;-84
2021/03/18 13:46:07;;;;;;;2.28;1.20;;;;;;;;;;5050186;28;20017;-85
2021/03/18 13:48:33;;;;;;;2.22;1.50;;;;;;;;;;5055132;28;20055;-87
2021/03/18 13:51:00;;;;;;;1.92;1.02;;;;;;;;;;5071489;28;20017;-85
2021/03/18 13:53:26;;;;;;;1.48;0.90;;;;;;;;;;5054125;28;20029;-85
2021/03/18 13:55:53;;;;;;;1.08;0.98;;;;;;;;;;5036606;28;20031;-85
2021/03/18 13:58:19;;;;;;;3.30;1.00;;;;;;;;;;5070434;28;20146;-83
2021/03/18 14:00:45;;;;;;;4.78;1.55;;;;;;;;;;5074924;28;20029;-84
2021/03/18 14:03:11;;;;;;;26.42;18.52;;;;;;;;;;5074025;28;20023;-86
2021/03/18 14:05:38;;;;;;;22.52;16.40;;;;;;;;;;5055500;28;20032;-84
2021/03/18 14:08:08;;;;;;;3.92;1.60;;;;;;;;;;5055611;28;20044;-82
2021/03/18 14:10:35;;;;;;;3.33;1.58;;;;;;;;;;5079040;28;20099;-85
2021/03/18 14:13:01;;;;;;;3.55;1.52;;;;;;;;;;5058810;28;20112;-83
2021/03/18 14:15:27;;;;;;;6.13;1.67;;;;;;;;;;5078217;28;20487;-83
2021/03/18 14:17:53;;;;;;;1.83;1.23;;;;;;;;;;5076339;28;20123;-84
2021/03/18 14:20:21;;;;;;;6.32;1.60;;;;;;;;;;5055131;28;20037;-83
2021/03/18 14:22:48;;;;;;;2.55;1.30;;;;;;;;;;5074887;28;20020;-82
2021/03/18 14:25:18;;;;;;;2.03;1.25;;;;;;;;;;5072952;28;20036;-88
2021/03/18 14:27:45;;;;;;;5.55;1.55;;;;;;;;;;5075700;28;20024;-84
2021/03/18 14:30:12;;;;;;;2.58;1.70;;;;;;;;;;5075880;28;20020;-83
2021/03/18 14:32:39;;;;;;;4.05;1.63;;;;;;;;;;5073900;28;20035;-83
2021/03/18 14:35:06;;;;;;;2.83;1.50;;;;;;;;;;5047403;28;20028;-86
2021/03/18 14:37:33;;;;;;;2.97;1.60;;;;;;;;;;5072948;28;20032;-84
2021/03/18 14:39:59;;;;;;;3.80;1.45;;;;;;;;;;5073939;28;20531;-84
2021/03/18 14:42:25;;;;;;;4.13;1.90;;;;;;;;;;5064558;28;20050;-82
2021/03/18 14:44:52;;;;;;;3.22;1.60;;;;;;;;;;5063697;28;20032;-85
2021/03/18 14:47:19;;;;;;;8.20;2.00;;;;;;;;;;5096998;28;20020;-83
2021/03/18 14:49:46;;;;;;;5.13;2.58;;;;;;;;;;5078133;28;20023;-83
2021/03/18 14:52:12;;;;;;;3.25;1.60;;;;;;;;;;5074035;28;20025;-85
2021/03/18 14:54:38;;;;;;;6.15;1.80;;;;;;;;;;5071791;28;20028;-84
2021/03/18 14:57:05;;;;;;;2.67;1.80;;;;;;;;;;5056584;28;20029;-84
2021/03/18 14:59:32;;;;;;;2.72;1.45;;;;;;;;;;5076770;28;20032;-86
2021/03/18 15:01:58;;;;;;;2.13;1.40;;;;;;;;;;5073427;28;20028;-84
2021/03/18 15:04:24;;;;;;;2.47;1.80;;;;;;;;;;5073325;28;20068;-84
2021/03/18 15:06:50;;;;;;;7.82;1.85;;;;;;;;;;5070450;28;20116;-80
2021/03/18 15:09:18;;;;;;;5.07;2.13;;;;;;;;;;5065485;28;20017;-80
2021/03/18 15:11:45;;;;;;;1.73;1.30;;;;;;;;;;5048063;28;20074;-80
2021/03/18 15:14:11;;;;;;;2.47;1.45;;;;;;;;;;5067213;28;20399;-81
2021/03/18 15:16:38;;;;;;;1.55;1.33;;;;;;;;;;5064390;28;20049;-80
2021/03/18 15:19:08;;;;;;;2.30;1.52;;;;;;;;;;5046126;28;20025;-81
2021/03/18 15:21:34;;;;;;;4.85;1.20;;;;;;;;;;5047819;28;20036;-81
2021/03/18 15:24:00;;;;;;;6.45;1.85;;;;;;;;;;5046552;28;20087;-81
2021/03/18 15:26:27;;;;;;;2.35;1.80;;;;;;;;;;5055674;28;21212;-81
2021/03/18 15:28:53;;;;;;;4.30;2.22;;;;;;;;;;5046699;28;20486;-80
2021/03/18 15:31:20;;;;;;;5.85;2.20;;;;;;;;;;5062657;28;20033;-80
2021/03/18 15:33:46;;;;;;;3.55;1.65;;;;;;;;;;5053786;28;20039;-80
2021/03/18 15:36:13;;;;;;;3.08;1.88;;;;;;;;;;5058634;28;20035;-79
2021/03/18 15:38:39;;;;;;;2.88;1.40;;;;;;;;;;5066428;28;20032;-79
2021/03/18 15:41:05;;;;;;;2.85;1.95;;;;;;;;;;5057486;28;20033;-80
2021/03/18 15:43:31;;;;;;;3.30;1.60;;;;;;;;;;5071931;28;20024;-79
2021/03/18 15:45:58;;;;;;;2.00;1.60;;;;;;;;;;5083115;28;20032;-79
2021/03/18 15:48:25;;;;;;;2.90;1.20;;;;;;;;;;5078346;28;20025;-81
2021/03/18 15:50:51;;;;;;;5.82;2.03;;;;;;;;;;5083593;28;20074;-82
2021/03/18 15:53:17;;;;;;;2.33;1.50;;;;;;;;;;5087526;28;20035;-82
2021/03/18 15:55:44;;;;;;;2.28;1.48;;;;;;;;;;5075349;28;20028;-80
2021/03/18 15:58:11;;;;;;;3.83;2.15;;;;;;;;;;5080316;28;20028;-80
2021/03/18 16:00:37;;;;;;;4.80;2.15;;;;;;;;;;5077441;28;20063;-80
2021/03/18 16:03:04;;;;;;;3.50;1.70;;;;;;;;;;5082734;28;20365;-81
2021/03/18 16:05:30;;;;;;;4.75;2.25;;;;;;;;;;5067592;28;20039;-82
2021/03/18 16:08:00;;;;;;;5.25;1.77;;;;;;;;;;5068860;28;20047;-81
2021/03/18 16:10:29;;;;;;;3.65;1.58;;;;;;;;;;5076285;28;20055;-81
2021/03/18 16:12:56;;;;;;;2.78;1.52;;;;;;;;;;5079479;28;20023;-81
2021/03/18 16:15:22;;;;;;;3.28;2.55;;;;;;;;;;5057323;28;20086;-82
2021/03/18 16:17:49;;;;;;;2.65;1.70;;;;;;;;;;5057492;28;20371;-81
2021/03/18 16:20:16;;;;;;;2.50;1.55;;;;;;;;;;5075372;28;20110;-81
2021/03/18 16:22:43;;;;;;;4.18;1.40;;;;;;;;;;5073844;28;20484;-81
2021/03/18 16:25:10;;;;;;;3.40;1.58;;;;;;;;;;5059973;28;20056;-81
2021/03/18 16:27:37;;;;;;;2.50;1.58;;;;;;;;;;5060671;28;20036;-81
2021/03/18 16:30:05;;;;;;;4.72;1.73;;;;;;;;;;5077850;28;20027;-82
2021/03/18 16:32:31;;;;;;;5.40;2.00;;;;;;;;;;5058413;28;20048;-82
2021/03/18 16:34:57;;;;;;;2.50;1.58;;;;;;;;;;5059284;28;20028;-81
2021/03/18 16:37:24;;;;;;;3.55;1.83;;;;;;;;;;5080662;28;20020;-81
2021/03/18 16:39:50;;;;;;;1.67;1.35;;;;;;;;;;5079992;28;20031;-80
2021/03/18 16:42:16;;;;;;;3.60;1.40;;;;;;;;;;5063957;28;20039;-81
2021/03/18 16:44:42;;;;;;;1.98;1.40;;;;;;;;;;5064360;28;20056;-81
2021/03/18 16:47:08;;;;;;;2.47;2.03;;;;;;;;;;5063599;28;20395;-82
2021/03/18 16:49:35;;;;;;;2.40;1.70;;;;;;;;;;5063681;28;20115;-83
2021/03/18 16:52:01;;;;;;;5.07;2.70;;;;;;;;;;5080817;28;20074;-82
2021/03/18 16:54:27;;;;;;;2.88;1.88;;;;;;;;;;5082771;28;20039;-81
2021/03/18 16:56:54;;;;;;;3.33;1.85;;;;;;;;;;5081972;28;20032;-83
2021/03/18 16:59:20;;;;;;;4.28;2.10;;;;;;;;;;5080706;28;20039;-83
2021/03/18 17:01:46;;;;;;;4.53;1.98;;;;;;;;;;5080067;28;20025;-83
2021/03/18 17:04:12;;;;;;;3.72;1.80;;;;;;;;;;5080897;28;20028;-81
2021/03/18 17:06:38;;;;;;;4.20;1.55;;;;;;;;;;5079353;28;20020;-81
2021/03/18 17:09:05;;;;;;;4.40;2.30;;;;;;;;;;5079496;28;20040;-81
2021/03/18 17:11:32;;;;;;;2.80;1.90;;;;;;;;;;5058909;28;20021;-81
2021/03/18 17:13:59;;;;;;;5.07;3.40;;;;;;;;;;5060421;28;20140;-81
2021/03/18 17:16:25;;;;;;;3.38;1.90;;;;;;;;;;5060142;28;20384;-80
2021/03/18 17:18:52;;;;;;;4.45;1.80;;;;;;;;;;5059406;28;20040;-79
2021/03/18 17:21:18;;;;;;;3.60;1.50;;;;;;;;;;5057823;28;20017;-79
2021/03/18 17:23:44;;;;;;;4.57;1.73;;;;;;;;;;5057761;28;20102;-79
2021/03/18 17:26:11;;;;;;;5.40;2.13;;;;;;;;;;5075435;28;20071;-79
2021/03/18 17:28:37;;;;;;;7.10;2.65;;;;;;;;;;5075456;28;20051;-79
2021/03/18 17:31:04;;;;;;;5.78;2.45;;;;;;;;;;5075355;28;20047;-79
2021/03/18 17:33:30;;;;;;;4.10;2.22;;;;;;;;;;5057532;28;20025;-79
2021/03/18 17:35:57;;;;;;;4.45;2.28;;;;;;;;;;5058429;28;20027;-79
2021/03/18 17:38:24;;;;;;;3.05;1.85;;;;;;;;;;5075444;28;20626;-79
2021/03/18 17:40:50;;;;;;;4.88;2.58;;;;;;;;;;5076673;28;20494;-79
2021/03/18 17:43:17;;;;;;;3.67;2.15;;;;;;;;;;5076842;28;20063;-79
2021/03/18 17:45:47;;;;;;;4.72;2.47;;;;;;;;;;5077757;28;20025;-79
2021/03/18 17:48:14;;;;;;;5.70;2.75;;;;;;;;;;5058065;28;20419;-79
2021/03/18 17:50:42;;;;;;;4.18;1.55;;;;;;;;;;5077259;28;20061;-79
2021/03/18 17:53:10;;;;;;;2.58;1.60;;;;;;;;;;5076746;28;20052;-79
2021/03/18 17:55:36;;;;;;;4.78;1.88;;;;;;;;;;5077277;28;20025;-79
2021/03/18 17:58:02;;;;;;;4.30;2.15;;;;;;;;;;5076891;28;20097;-79
2021/03/18 18:00:29;;;;;;;4.32;2.30;;;;;;;;;;5077428;28;20427;-79
2021/03/18 18:02:55;;;;;;;2.70;1.77;;;;;;;;;;5058580;28;20033;-79
2021/03/18 18:05:21;;;;;;;2.50;1.27;;;;;;;;;;5058639;28;20555;-79
2021/03/18 18:07:48;;;;;;;6.45;2.35;;;;;;;;;;5058659;28;20032;-79
2021/03/18 18:10:15;;;;;;;6.18;2.30;;;;;;;;;;5058809;28;20024;-79
2021/03/18 18:12:42;;;;;;;4.32;1.75;;;;;;;;;;5076519;28;20028;-79
2021/03/18 18:15:14;;;;;;;5.25;2.25;;;;;;;;;;5059052;28;20047;-79
2021/03/18 18:17:40;;;;;;;4.25;2.50;;;;;;;;;;5058729;28;20033;-79
2021/03/18 18:20:08;;;;;;;3.72;2.08;;;;;;;;;;5058435;28;20492;-79
2021/03/18 18:22:34;;;;;;;5.57;2.28;;;;;;;;;;5077033;28;20491;-79
2021/03/18 18:25:00;;;;;;;4.40;2.30;;;;;;;;;;5058792;28;20024;-79
2021/03/18 18:27:26;;;;;;;4.65;2.15;;;;;;;;;;5077193;28;20594;-79
2021/03/18 18:29:52;;;;;;;2.97;1.92;;;;;;;;;;5076665;28;20023;-79
2021/03/18 18:32:18;;;;;;;5.07;2.03;;;;;;;;;;5058604;28;20029;-79
2021/03/18 18:34:45;;;;;;;4.65;2.83;;;;;;;;;;5076514;28;20092;-79
2021/03/18 18:37:11;;;;;;;9.63;6.28;;;;;;;;;;5076247;28;20033;-79
2021/03/18 18:39:37;;;;;;;8.55;4.05;;;;;;;;;;5075832;28;20086;-79
2021/03/18 18:42:03;;;;;;;7.78;3.30;;;;;;;;;;5076951;28;20032;-79
2021/03/18 18:44:29;;;;;;;15.50;8.18;;;;;;;;;;5076126;28;20074;-79
2021/03/18 18:46:55;;;;;;;13.07;7.53;;;;;;;;;;5076241;28;20083;-79
2021/03/18 18:49:21;;;;;;;13.35;8.45;;;;;;;;;;5076144;28;20039;-79
2021/03/18 18:51:48;;;;;;;13.60;6.55;;;;;;;;;;5076168;28;20108;-79
2021/03/18 18:54:14;;;;;;;16.33;8.27;;;;;;;;;;5076030;28;20031;-79
2021/03/18 18:56:40;;;;;;;20.42;13.60;;;;;;;;;;5076322;28;20076;-79
2021/03/18 18:59:06;;;;;;;17.42;11.60;;;;;;;;;;5074493;28;20024;-79
2021/03/18 19:01:35;;;;;;;13.63;7.43;;;;;;;;;;5076219;28;20494;-79
2021/03/18 19:04:02;;;;;;;11.77;7.78;;;;;;;;;;5057733;28;20021;-79
2021/03/18 19:06:29;;;;;;;9.88;5.93;;;;;;;;;;5075880;28;20024;-79
2021/03/18 19:08:55;;;;;;;12.40;5.53;;;;;;;;;;5057660;28;20027;-79
2021/03/18 19:11:21;;;;;;;7.55;4.35;;;;;;;;;;5057852;28;20033;-79
2021/03/18 19:13:48;;;;;;;7.50;3.53;;;;;;;;;;5075102;28;20044;-79
2021/03/18 19:16:15;;;;;;;5.55;3.65;;;;;;;;;;5075235;28;20044;-79
2021/03/18 19:18:41;;;;;;;7.05;4.15;;;;;;;;;;5075697;28;20024;-79
2021/03/18 19:21:07;;;;;;;8.85;3.97;;;;;;;;;;5079753;28;20104;-79
2021/03/18 19:23:33;;;;;;;7.45;3.97;;;;;;;;;;5096406;28;20475;-79
2021/03/18 19:25:59;;;;;;;5.32;3.30;;;;;;;;;;5096152;28;20411;-79
2021/03/18 19:28:26;;;;;;;6.13;3.35;;;;;;;;;;5077484;28;20028;-79
2021/03/18 19:30:53;;;;;;;7.75;3.35;;;;;;;;;;5077801;28;20101;-79
2021/03/18 19:33:20;;;;;;;4.93;3.38;;;;;;;;;;5096025;28;20062;-79
2021/03/18 19:35:49;;;;;;;5.53;2.58;;;;;;;;;;5095889;28;20436;-78
2021/03/18 19:38:16;;;;;;;3.55;1.60;;;;;;;;;;5074417;28;20028;-79
2021/03/18 19:40:44;;;;;;;5.70;3.03;;;;;;;;;;5075280;28;20056;-79
2021/03/18 19:43:11;;;;;;;8.23;3.25;;;;;;;;;;5075220;28;20039;-79
2021/03/18 19:45:46;;;;;;;5.32;3.25;;;;;;;;;;5074924;28;20564;-79
2021/03/18 19:48:13;;;;;;;4.78;3.40;;;;;;;;;;5075522;28;20031;-79
2021/03/18 19:50:40;;;;;;;7.22;4.20;;;;;;;;;;5056663;28;20020;-79
2021/03/18 19:53:07;;;;;;;4.90;3.58;;;;;;;;;;5059268;28;20028;-79
2021/03/18 19:55:33;;;;;;;4.18;3.03;;;;;;;;;;5066682;28;20119;-79
2021/03/18 19:57:59;;;;;;;4.10;2.30;;;;;;;;;;5074910;28;20384;-79
2021/03/18 20:00:26;;;;;;;6.45;3.55;;;;;;;;;;5072360;28;20527;-79
2021/03/18 20:02:53;;;;;;;2.70;2.00;;;;;;;;;;5075086;28;20028;-79
2021/03/18 20:05:20;;;;;;;4.63;2.20;;;;;;;;;;5074351;28;20029;-79
2021/03/18 20:07:46;;;;;;;2.45;1.90;;;;;;;;;;5074760;28;20120;-79
2021/03/18 20:10:14;;;;;;;5.22;2.17;;;;;;;;;;5056903;28;20427;-79
2021/03/18 20:12:40;;;;;;;2.80;2.25;;;;;;;;;;5068596;28;20116;-79
2021/03/18 20:15:07;;;;;;;4.25;3.15;;;;;;;;;;5074259;28;20515;-79
2021/03/18 20:17:33;;;;;;;3.92;2.17;;;;;;;;;;5074943;28;20074;-79
2021/03/18 20:19:59;;;;;;;3.92;2.60;;;;;;;;;;5074882;28;20035;-79
2021/03/18 20:22:26;;;;;;;5.40;2.00;;;;;;;;;;5056906;28;20040;-79
2021/03/18 20:24:52;;;;;;;4.15;1.77;;;;;;;;;;5056753;28;20028;-79
2021/03/18 20:27:18;;;;;;;3.80;2.40;;;;;;;;;;5075084;28;20043;-79
2021/03/18 20:29:44;;;;;;;4.07;1.98;;;;;;;;;;5074548;28;20036;-79
2021/03/18 20:32:10;;;;;;;2.80;1.85;;;;;;;;;;5056735;28;20025;-79
2021/03/18 20:34:37;;;;;;;3.75;1.83;;;;;;;;;;5056696;28;20086;-79
2021/03/18 20:37:04;;;;;;;2.03;1.40;;;;;;;;;;5056592;28;20021;-79
2021/03/18 20:39:31;;;;;;;5.32;1.98;;;;;;;;;;5074801;28;20029;-79
2021/03/18 20:41:58;;;;;;;5.72;1.88;;;;;;;;;;5074977;28;20104;-79
2021/03/18 20:44:25;;;;;;;3.88;2.00;;;;;;;;;;5075289;28;20518;-79
2021/03/18 20:46:51;;;;;;;4.57;1.85;;;;;;;;;;5074950;28;20032;-79
2021/03/18 20:49:17;;;;;;;13.23;7.95;;;;;;;;;;5074819;28;20080;-79
2021/03/18 20:51:43;;;;;;;10.27;5.53;;;;;;;;;;5057042;28;20039;-79
2021/03/18 20:54:09;;;;;;;3.83;2.78;;;;;;;;;;5075020;28;20028;-79
2021/03/18 20:56:35;;;;;;;3.33;1.77;;;;;;;;;;5073991;28;20064;-79
2021/03/18 20:59:01;;;;;;;4.00;2.30;;;;;;;;;;5074519;28;20028;-79
2021/03/18 21:01:27;;;;;;;4.25;1.90;;;;;;;;;;5056184;28;20412;-79
2021/03/18 21:03:53;;;;;;;3.08;2.25;;;;;;;;;;5053456;28;20033;-79
2021/03/18 21:06:20;;;;;;;2.45;1.77;;;;;;;;;;5054152;28;20020;-79
2021/03/18 21:08:46;;;;;;;3.67;1.70;;;;;;;;;;5054677;28;20100;-79
2021/03/18 21:11:12;;;;;;;2.97;1.63;;;;;;;;;;5054123;28;20028;-79
2021/03/18 21:13:38;;;;;;;2.65;1.60;;;;;;;;;;5054524;28;20033;-79
2021/03/18 21:16:05;;;;;;;3.30;1.45;;;;;;;;;;5064032;28;20031;-79
2021/03/18 21:18:31;;;;;;;1.90;1.40;;;;;;;;;;5056596;28;20456;-79
2021/03/18 21:20:57;;;;;;;3.92;2.40;;;;;;;;;;5074659;28;20025;-79
2021/03/18 21:23:23;;;;;;;4.70;2.05;;;;;;;;;;5059752;28;20024;-79
2021/03/18 21:25:51;;;;;;;3.40;1.90;;;;;;;;;;5059557;28;20532;-79
2021/03/18 21:28:17;;;;;;;3.60;1.73;;;;;;;;;;5060050;28;20031;-79
2021/03/18 21:30:44;;;;;;;3.08;2.00;;;;;;;;;;5078142;28;20016;-79
2021/03/18 21:33:10;;;;;;;4.22;2.22;;;;;;;;;;5060058;28;20028;-79
2021/03/18 21:35:36;;;;;;;2.25;1.65;;;;;;;;;;5077565;28;20043;-79
2021/03/18 21:38:03;;;;;;;3.53;2.00;;;;;;;;;;5078314;28;20039;-79
2021/03/18 21:40:29;;;;;;;3.08;1.90;;;;;;;;;;5059928;28;20029;-79
2021/03/18 21:42:55;;;;;;;4.68;2.40;;;;;;;;;;5077965;28;20039;-79
2021/03/18 21:45:22;;;;;;;19.20;10.18;;;;;;;;;;5059686;28;20017;-79
2021/03/18 21:47:49;;;;;;;2.90;1.80;;;;;;;;;;5077370;28;20031;-79
2021/03/18 21:50:17;;;;;;;3.50;2.00;;;;;;;;;;5059797;28;20108;-79
2021/03/18 21:52:43;;;;;;;3.70;2.10;;;;;;;;;;5059851;28;20025;-79
2021/03/18 21:55:10;;;;;;;3.50;2.05;;;;;;;;;;5077892;28;20104;-79
2021/03/18 21:57:37;;;;;;;4.68;2.00;;;;;;;;;;5077361;28;20028;-79
2021/03/18 22:00:05;;;;;;;2.50;1.75;;;;;;;;;;5056361;28;20029;-79
2021/03/18 22:02:31;;;;;;;3.40;2.10;;;;;;;;;;5060478;28;20028;-79
2021/03/18 22:04:59;;;;;;;2.67;1.92;;;;;;;;;;5059224;28;20511;-79
2021/03/18 22:07:25;;;;;;;3.20;2.08;;;;;;;;;;5076795;28;20028;-79
2021/03/18 22:09:52;;;;;;;3.20;1.90;;;;;;;;;;5077905;28;20047;-79
2021/03/18 22:12:18;;;;;;;3.90;1.85;;;;;;;;;;5077067;28;20024;-79
2021/03/18 22:14:44;;;;;;;3.30;1.90;;;;;;;;;;5047968;28;20544;-79
2021/03/18 22:17:10;;;;;;;3.90;2.10;;;;;;;;;;5053818;28;20052;-79
2021/03/18 22:19:36;;;;;;;3.30;1.92;;;;;;;;;;5056776;28;20029;-79
2021/03/18 22:22:02;;;;;;;3.28;1.77;;;;;;;;;;5039149;28;20031;-79
2021/03/18 22:24:29;;;;;;;3.38;2.53;;;;;;;;;;5039543;28;20378;-79
2021/03/18 22:26:56;;;;;;;2.83;2.05;;;;;;;;;;5038955;28;20037;-79
2021/03/18 22:29:22;;;;;;;3.10;2.00;;;;;;;;;;5056997;28;20447;-79
2021/03/18 22:31:48;;;;;;;2.40;1.45;;;;;;;;;;5056926;28;20443;-79
2021/03/18 22:34:14;;;;;;;5.20;2.80;;;;;;;;;;5056853;28;20144;-79
2021/03/18 22:36:40;;;;;;;9.00;4.50;;;;;;;;;;5038777;28;20063;-79
2021/03/18 22:39:07;;;;;;;7.07;3.40;;;;;;;;;;5056771;28;20031;-79
2021/03/18 22:41:33;;;;;;;3.13;2.17;;;;;;;;;;5056878;28;20469;-79
2021/03/18 22:43:59;;;;;;;4.22;2.08;;;;;;;;;;5056882;28;20473;-79
2021/03/18 22:46:25;;;;;;;2.78;1.98;;;;;;;;;;5056797;28;20293;-79
2021/03/18 22:48:51;;;;;;;3.35;2.00;;;;;;;;;;5056852;28;20017;-79
2021/03/18 22:51:18;;;;;;;3.22;1.80;;;;;;;;;;5055878;28;20036;-79
2021/03/18 22:53:44;;;;;;;4.30;2.30;;;;;;;;;;5038604;28;20017;-79
2021/03/18 22:56:10;;;;;;;5.75;2.97;;;;;;;;;;5057070;28;20090;-79
2021/03/18 22:58:36;;;;;;;2.88;2.25;;;;;;;;;;5056730;28;20032;-79